Řízení letového provozu České republiky
Letiste: LKKB Aktualizace: 16.10.2019 00:00:30  UTC
 METAR LKKB 16.10. 00:00 ...
METAR LKKB 160000Z 22005KT 5000 BR NSC 09/09 Q1007 RMK WHT=
 TAF LKKB 15.10. 23:00 ...
TAF LKKB 152300Z 1600/1700 18004KT 9999 SCT030      TEMPO 1603/1615 20010G20KT 6000 RA BKN015      BECMG 1618/1620 CAVOK=